PWSweather.com
Personal Weather Stations
Station Observations
IHTIMAN1
Neighbourhood 1, IhtimanBG 2050

Neighbourhood 1IhtimanBG 2050

Lat: 42.436852, Lon: 23.817921

Elevation: 2066

Station Type: Oregon Scientific WMR968

http://ihtiman-meteo.com

Latest ConditionsUpdated 9:20:02 PM GMT+02:02 Tuesday, Nov 12, 2019
Currently Today's Max Today's Min Today's Average
Temperature 56.7°F13.7°C 62.0°F16.7°C 44.8°F7.1°C 54.2°F12.3°C
Dew Point 54.7°F12.6°C 55.9°F13.3°C 44.3°F6.8°C 52.4°F11.3°C
Winds 8.1 mph SE13.0 kmh SE 11.5 mph -18.5 kmh - - 5.1 mph 8.2 kmh
Wind Gusts 11.5 mph18.5 kmh 19.6 mph31.5 kmh - -
Humidity 93% 98% 73% 94%
Pressure 29.91 in1012.9 mb 30.06 in1017.9 mb 29.91 in1012.9 mb -
Hour Temp Dew Point Humidity Winds Wind Gusts Pressure Precip Precip Rate Daily Precip Total
09:20 PM 56.7°F13.7°C 54.7°F12.6°C 93% 8.1 mph SE13.0 kmh SE 11.5 mph18.5 kmh 29.91 in1012.9 mb - 0.00 in0.0 mm 0.00 in0.0 mm
09:10 PM 56.7°F13.7°C 55.0°F12.8°C 94% 9.2 mph ESE14.8 kmh ESE 12.7 mph20.4 kmh 29.91 in1012.9 mb - 0.00 in0.0 mm 0.00 in0.0 mm
09:00 PM 56.8°F13.8°C 55.1°F12.8°C 94% 10.4 mph SE16.7 kmh SE 19.6 mph31.5 kmh 29.91 in1012.9 mb - 0.00 in0.0 mm 0.00 in0.0 mm
08:50 PM 56.8°F13.8°C 55.1°F12.8°C 94% 8.1 mph ESE13.0 kmh ESE 15.0 mph24.1 kmh 29.91 in1012.9 mb - 0.00 in0.0 mm 0.00 in0.0 mm
08:40 PM 57.0°F13.9°C 55.5°F13.1°C 95% 10.4 mph SE16.7 kmh SE 12.7 mph20.4 kmh 29.94 in1013.9 mb - 0.00 in0.0 mm 0.00 in0.0 mm
08:30 PM 56.9°F13.8°C 55.5°F13.1°C 95% 8.1 mph SE13.0 kmh SE 12.7 mph20.4 kmh 29.94 in1013.9 mb - 0.00 in0.0 mm 0.00 in0.0 mm
08:20 PM 56.8°F13.8°C 55.4°F13.0°C 95% 6.9 mph SE11.1 kmh SE 12.7 mph20.4 kmh 29.94 in1013.9 mb - 0.00 in0.0 mm 0.00 in0.0 mm
08:10 PM 57.0°F13.9°C 55.3°F12.9°C 94% 5.8 mph S9.3 kmh S 10.4 mph16.7 kmh 29.94 in1013.9 mb - 0.00 in0.0 mm 0.00 in0.0 mm
08:00 PM 57.0°F13.9°C 55.3°F12.9°C 94% 5.8 mph SSE9.3 kmh SSE 8.1 mph13.0 kmh 29.94 in1013.9 mb - 0.00 in0.0 mm 0.00 in0.0 mm
07:50 PM 57.2°F14.0°C 55.5°F13.1°C 94% 4.6 mph S7.4 kmh S 5.8 mph9.3 kmh 29.94 in1013.9 mb - 0.00 in0.0 mm 0.00 in0.0 mm
07:40 PM 57.2°F14.0°C 55.5°F13.1°C 94% 3.5 mph ESE5.6 kmh ESE 5.8 mph9.3 kmh 29.94 in1013.9 mb - 0.00 in0.0 mm 0.00 in0.0 mm
07:30 PM 57.2°F14.0°C 55.2°F12.9°C 93% 5.8 mph SE9.3 kmh SE 5.8 mph9.3 kmh 29.94 in1013.9 mb - 0.00 in0.0 mm 0.00 in0.0 mm
07:20 PM 57.2°F14.0°C 55.2°F12.9°C 93% 5.8 mph ESE9.3 kmh ESE 8.1 mph13.0 kmh 29.94 in1013.9 mb - 0.00 in0.0 mm 0.00 in0.0 mm
07:10 PM 57.4°F14.1°C 55.4°F13.0°C 93% 5.8 mph E9.3 kmh E 9.2 mph14.8 kmh 29.97 in1014.9 mb - 0.00 in0.0 mm 0.00 in0.0 mm
07:00 PM 57.4°F14.1°C 55.4°F13.0°C 93% 5.8 mph E9.3 kmh E 8.1 mph13.0 kmh 29.97 in1014.9 mb - 0.00 in0.0 mm 0.00 in0.0 mm
06:50 PM 57.6°F14.2°C 55.6°F13.1°C 93% 5.8 mph ESE9.3 kmh ESE 8.1 mph13.0 kmh 29.94 in1013.9 mb - 0.00 in0.0 mm 0.00 in0.0 mm
06:40 PM 57.6°F14.2°C 55.8°F13.2°C 94% 6.9 mph SE11.1 kmh SE 9.2 mph14.8 kmh 29.94 in1013.9 mb - 0.00 in0.0 mm 0.00 in0.0 mm
06:30 PM 57.4°F14.1°C 55.7°F13.2°C 94% 6.9 mph SE11.1 kmh SE 5.8 mph9.3 kmh 29.94 in1013.9 mb - 0.00 in0.0 mm 0.00 in0.0 mm
06:20 PM 57.3°F14.1°C 55.5°F13.1°C 94% 3.5 mph SE5.6 kmh SE 9.2 mph14.8 kmh 29.94 in1013.9 mb - 0.00 in0.0 mm 0.00 in0.0 mm
06:10 PM 57.2°F14.0°C 55.5°F13.1°C 94% 3.5 mph SSE5.6 kmh SSE 5.8 mph9.3 kmh 29.94 in1013.9 mb - 0.00 in0.0 mm 0.00 in0.0 mm
06:00 PM 57.0°F13.9°C 55.6°F13.1°C 95% 4.6 mph E7.4 kmh E 5.8 mph9.3 kmh 29.94 in1013.9 mb - 0.00 in0.0 mm 0.00 in0.0 mm
05:50 PM 56.8°F13.8°C 55.4°F13.0°C 95% 4.6 mph SE7.4 kmh SE 8.1 mph13.0 kmh 29.94 in1013.9 mb - 0.00 in0.0 mm 0.00 in0.0 mm
05:40 PM 56.6°F13.7°C 55.2°F12.9°C 95% 5.8 mph SE9.3 kmh SE 9.2 mph14.8 kmh 29.94 in1013.9 mb - 0.00 in0.0 mm 0.00 in0.0 mm
05:30 PM 56.3°F13.5°C 54.6°F12.6°C 94% 4.6 mph SE7.4 kmh SE 9.2 mph14.8 kmh 29.94 in1013.9 mb - 0.00 in0.0 mm 0.00 in0.0 mm
05:20 PM 56.3°F13.5°C 54.6°F12.6°C 94% 3.5 mph SSE5.6 kmh SSE 6.9 mph11.1 kmh 29.94 in1013.9 mb - 0.00 in0.0 mm 0.00 in0.0 mm
05:10 PM 56.1°F13.4°C 54.1°F12.3°C 93% 3.5 mph SSE5.6 kmh SSE 9.2 mph14.8 kmh 29.94 in1013.9 mb - 0.00 in0.0 mm 0.00 in0.0 mm
05:00 PM 55.9°F13.3°C 53.6°F12.0°C 92% 3.5 mph SSE5.6 kmh SSE 3.5 mph5.6 kmh 29.94 in1013.9 mb - 0.00 in0.0 mm 0.00 in0.0 mm
04:50 PM 56.3°F13.5°C 54.0°F12.2°C 92% 2.3 mph S3.7 kmh S 3.5 mph5.6 kmh 29.94 in1013.9 mb - 0.00 in0.0 mm 0.00 in0.0 mm
04:40 PM 56.5°F13.6°C 53.9°F12.2°C 91% 4.6 mph SSE7.4 kmh SSE 8.1 mph13.0 kmh 29.94 in1013.9 mb - 0.00 in0.0 mm 0.00 in0.0 mm
04:30 PM 56.7°F13.7°C 54.1°F12.3°C 91% 5.8 mph SSE9.3 kmh SSE 5.8 mph9.3 kmh 29.94 in1013.9 mb - 0.00 in0.0 mm 0.00 in0.0 mm
04:20 PM 57.2°F14.0°C 54.3°F12.4°C 90% 4.6 mph SE7.4 kmh SE 8.1 mph13.0 kmh 29.94 in1013.9 mb - 0.00 in0.0 mm 0.00 in0.0 mm
04:10 PM 57.4°F14.1°C 54.5°F12.5°C 90% 5.8 mph SE9.3 kmh SE 8.1 mph13.0 kmh 29.94 in1013.9 mb - 0.00 in0.0 mm 0.00 in0.0 mm
04:00 PM 57.5°F14.2°C 54.3°F12.4°C 89% 5.8 mph SSE9.3 kmh SSE 11.5 mph18.5 kmh 29.94 in1013.9 mb - 0.00 in0.0 mm 0.00 in0.0 mm
03:50 PM 57.7°F14.3°C 54.5°F12.5°C 89% 8.1 mph SE13.0 kmh SE 12.7 mph20.4 kmh 29.94 in1013.9 mb - 0.00 in0.0 mm 0.00 in0.0 mm
03:40 PM 57.9°F14.4°C 54.1°F12.3°C 87% 6.9 mph SSE11.1 kmh SSE 8.1 mph13.0 kmh 29.94 in1013.9 mb - 0.00 in0.0 mm 0.00 in0.0 mm
03:30 PM 58.2°F14.6°C 53.7°F12.1°C 85% 8.1 mph SSE13.0 kmh SSE 12.7 mph20.4 kmh 29.94 in1013.9 mb - 0.00 in0.0 mm 0.00 in0.0 mm
03:20 PM 58.5°F14.7°C 53.6°F12.0°C 84% 4.6 mph SE7.4 kmh SE 5.8 mph9.3 kmh 29.94 in1013.9 mb - 0.00 in0.0 mm 0.00 in0.0 mm
03:10 PM 58.8°F14.9°C 53.3°F11.8°C 82% 4.6 mph SE7.4 kmh SE 9.2 mph14.8 kmh 29.97 in1014.9 mb - 0.00 in0.0 mm 0.00 in0.0 mm
03:00 PM 59.0°F15.0°C 53.2°F11.8°C 81% 4.6 mph SE7.4 kmh SE 5.8 mph9.3 kmh 29.97 in1014.9 mb - 0.00 in0.0 mm 0.00 in0.0 mm
02:50 PM 59.0°F15.0°C 52.5°F11.4°C 79% 9.2 mph S14.8 kmh S 12.7 mph20.4 kmh 29.94 in1013.9 mb - 0.00 in0.0 mm 0.00 in0.0 mm
02:40 PM 60.0°F15.6°C 52.4°F11.3°C 76% 9.2 mph S14.8 kmh S 15.0 mph24.1 kmh 29.94 in1013.9 mb - 0.00 in0.0 mm 0.00 in0.0 mm
02:30 PM 61.0°F16.1°C 53.0°F11.7°C 75% 6.9 mph SSE11.1 kmh SSE 18.4 mph29.6 kmh 29.94 in1013.9 mb - 0.00 in0.0 mm 0.00 in0.0 mm
02:20 PM 61.1°F16.2°C 52.4°F11.3°C 73% 5.8 mph SE9.3 kmh SE 11.5 mph18.5 kmh 29.94 in1013.9 mb - 0.00 in0.0 mm 0.00 in0.0 mm
02:10 PM 62.0°F16.7°C 53.7°F12.1°C 74% 8.1 mph SE13.0 kmh SE 12.7 mph20.4 kmh 29.97 in1014.9 mb - 0.00 in0.0 mm 0.00 in0.0 mm
02:00 PM 60.7°F15.9°C 54.2°F12.3°C 79% 4.6 mph ESE7.4 kmh ESE 5.8 mph9.3 kmh 29.97 in1014.9 mb - 0.00 in0.0 mm 0.00 in0.0 mm
01:50 PM 59.6°F15.3°C 55.0°F12.8°C 85% 5.8 mph ESE9.3 kmh ESE 5.8 mph9.3 kmh 29.97 in1014.9 mb - 0.00 in0.0 mm 0.00 in0.0 mm
01:40 PM 57.5°F14.2°C 53.3°F11.8°C 86% 5.8 mph ESE9.3 kmh ESE 8.1 mph13.0 kmh 29.97 in1014.9 mb - 0.00 in0.0 mm 0.00 in0.0 mm
01:30 PM 57.6°F14.2°C 53.4°F11.9°C 86% 6.9 mph SSE11.1 kmh SSE 8.1 mph13.0 kmh 29.97 in1014.9 mb - 0.00 in0.0 mm 0.00 in0.0 mm
01:20 PM 57.4°F14.1°C 53.2°F11.8°C 86% 9.2 mph S14.8 kmh S 10.4 mph16.7 kmh 29.97 in1014.9 mb - 0.00 in0.0 mm 0.00 in0.0 mm
01:10 PM 57.1°F13.9°C 52.7°F11.5°C 85% 6.9 mph SE11.1 kmh SE 9.2 mph14.8 kmh 29.97 in1014.9 mb - 0.00 in0.0 mm 0.00 in0.0 mm
01:00 PM 57.1°F13.9°C 52.6°F11.4°C 85% 8.1 mph SSE13.0 kmh SSE 8.1 mph13.0 kmh 29.97 in1014.9 mb - 0.00 in0.0 mm 0.00 in0.0 mm
12:50 PM 57.4°F14.1°C 53.0°F11.7°C 85% 6.9 mph S11.1 kmh S 10.4 mph16.7 kmh 30.00 in1015.9 mb - 0.00 in0.0 mm 0.00 in0.0 mm
12:40 PM 57.2°F14.0°C 52.4°F11.3°C 84% 8.1 mph S13.0 kmh S 11.5 mph18.5 kmh 30.00 in1015.9 mb - 0.00 in0.0 mm 0.00 in0.0 mm
12:30 PM 58.0°F14.4°C 53.2°F11.8°C 84% 9.2 mph SSE14.8 kmh SSE 10.4 mph16.7 kmh 30.00 in1015.9 mb - 0.00 in0.0 mm 0.00 in0.0 mm
12:20 PM 58.0°F14.4°C 53.8°F12.1°C 86% 10.4 mph ESE16.7 kmh ESE 11.5 mph18.5 kmh 30.00 in1015.9 mb - 0.00 in0.0 mm 0.00 in0.0 mm
12:10 PM 57.7°F14.3°C 54.5°F12.5°C 89% 8.1 mph S13.0 kmh S 10.4 mph16.7 kmh 30.00 in1015.9 mb - 0.00 in0.0 mm 0.00 in0.0 mm
12:00 PM 57.3°F14.1°C 55.0°F12.8°C 92% 5.8 mph SSE9.3 kmh SSE 8.1 mph13.0 kmh 30.00 in1015.9 mb - 0.00 in0.0 mm 0.00 in0.0 mm
11:50 AM 56.4°F13.6°C 54.7°F12.6°C 94% 6.9 mph SE11.1 kmh SE 8.1 mph13.0 kmh 30.00 in1015.9 mb - 0.00 in0.0 mm 0.00 in0.0 mm
11:40 AM 56.3°F13.5°C 55.5°F13.1°C 97% 8.1 mph SE13.0 kmh SE 12.7 mph20.4 kmh 30.00 in1015.9 mb - 0.00 in0.0 mm 0.00 in0.0 mm
11:30 AM 55.5°F13.1°C 54.9°F12.7°C 98% 4.6 mph SE7.4 kmh SE 8.1 mph13.0 kmh 30.00 in1015.9 mb - 0.00 in0.0 mm 0.00 in0.0 mm
11:20 AM 55.0°F12.8°C 54.5°F12.5°C 98% 9.2 mph SE14.8 kmh SE 11.5 mph18.5 kmh 30.03 in1016.9 mb - 0.00 in0.0 mm 0.00 in0.0 mm
11:10 AM 55.0°F12.8°C 54.4°F12.4°C 98% 11.5 mph SE18.5 kmh SE 18.4 mph29.6 kmh 30.03 in1016.9 mb - 0.00 in0.0 mm 0.00 in0.0 mm
11:00 AM 54.9°F12.7°C 54.3°F12.4°C 98% 6.9 mph SSE11.1 kmh SSE 15.0 mph24.1 kmh 30.03 in1016.9 mb - 0.00 in0.0 mm 0.00 in0.0 mm
10:50 AM 54.7°F12.6°C 54.1°F12.3°C 98% 6.9 mph SE11.1 kmh SE 9.2 mph14.8 kmh 30.03 in1016.9 mb - 0.00 in0.0 mm 0.00 in0.0 mm
10:40 AM 55.2°F12.9°C 54.4°F12.4°C 97% 5.8 mph SE9.3 kmh SE 9.2 mph14.8 kmh 30.03 in1016.9 mb - 0.00 in0.0 mm 0.00 in0.0 mm
10:30 AM 56.0°F13.3°C 55.2°F12.9°C 97% 8.1 mph S13.0 kmh S 11.5 mph18.5 kmh 30.03 in1016.9 mb - 0.00 in0.0 mm 0.00 in0.0 mm
10:20 AM 56.5°F13.6°C 55.9°F13.3°C 98% 3.5 mph SE5.6 kmh SE 5.8 mph9.3 kmh 30.03 in1016.9 mb - 0.00 in0.0 mm 0.00 in0.0 mm
10:10 AM 55.9°F13.3°C 55.3°F12.9°C 98% 4.6 mph SE7.4 kmh SE 8.1 mph13.0 kmh 30.03 in1016.9 mb - 0.00 in0.0 mm 0.00 in0.0 mm
10:00 AM 55.3°F12.9°C 54.7°F12.6°C 98% 6.9 mph SSE11.1 kmh SSE 12.7 mph20.4 kmh 30.03 in1016.9 mb - 0.00 in0.0 mm 0.00 in0.0 mm
09:50 AM 54.9°F12.7°C 54.3°F12.4°C 98% 6.9 mph SE11.1 kmh SE 10.4 mph16.7 kmh 30.03 in1016.9 mb - 0.00 in0.0 mm 0.00 in0.0 mm
09:40 AM 54.9°F12.7°C 54.3°F12.4°C 98% 4.6 mph SE7.4 kmh SE 5.8 mph9.3 kmh 30.03 in1016.9 mb - 0.00 in0.0 mm 0.00 in0.0 mm
09:30 AM 54.7°F12.6°C 54.1°F12.3°C 98% 4.6 mph SE7.4 kmh SE 10.4 mph16.7 kmh 30.03 in1016.9 mb - 0.00 in0.0 mm 0.00 in0.0 mm
09:20 AM 54.7°F12.6°C 54.1°F12.3°C 98% 5.8 mph SE9.3 kmh SE 11.5 mph18.5 kmh 30.03 in1016.9 mb - 0.00 in0.0 mm 0.00 in0.0 mm
09:10 AM 55.0°F12.8°C 54.5°F12.5°C 98% 5.8 mph SE9.3 kmh SE 8.1 mph13.0 kmh 30.03 in1016.9 mb - 0.00 in0.0 mm 0.00 in0.0 mm
09:00 AM 55.0°F12.8°C 54.5°F12.5°C 98% 5.8 mph SE9.3 kmh SE 9.2 mph14.8 kmh 30.03 in1016.9 mb - 0.00 in0.0 mm 0.00 in0.0 mm
08:50 AM 54.5°F12.5°C 53.9°F12.2°C 98% 6.9 mph SE11.1 kmh SE 12.7 mph20.4 kmh 30.06 in1017.9 mb - 0.00 in0.0 mm 0.00 in0.0 mm
08:40 AM 54.0°F12.2°C 53.4°F11.9°C 98% 8.1 mph SE13.0 kmh SE 12.7 mph20.4 kmh 30.06 in1017.9 mb - 0.00 in0.0 mm 0.00 in0.0 mm
08:30 AM 54.0°F12.2°C 53.4°F11.9°C 98% 9.2 mph SE14.8 kmh SE 12.7 mph20.4 kmh 30.06 in1017.9 mb - 0.00 in0.0 mm 0.00 in0.0 mm
08:20 AM 53.8°F12.1°C 53.2°F11.8°C 98% 5.8 mph SE9.3 kmh SE 11.5 mph18.5 kmh 30.03 in1016.9 mb - 0.00 in0.0 mm 0.00 in0.0 mm
08:10 AM 53.5°F11.9°C 53.0°F11.7°C 98% 8.1 mph SE13.0 kmh SE 11.5 mph18.5 kmh 30.03 in1016.9 mb - 0.00 in0.0 mm 0.00 in0.0 mm
08:00 AM 53.4°F11.9°C 52.8°F11.6°C 98% 6.9 mph SE11.1 kmh SE 10.4 mph16.7 kmh 30.03 in1016.9 mb - 0.00 in0.0 mm 0.00 in0.0 mm
07:50 AM 53.1°F11.7°C 52.5°F11.4°C 98% 5.8 mph SE9.3 kmh SE 11.5 mph18.5 kmh 30.03 in1016.9 mb - 0.00 in0.0 mm 0.00 in0.0 mm
07:40 AM 52.9°F11.6°C 52.3°F11.3°C 98% 8.1 mph S13.0 kmh S 13.8 mph22.2 kmh 30.03 in1016.9 mb - 0.00 in0.0 mm 0.00 in0.0 mm
07:30 AM 52.7°F11.5°C 52.2°F11.2°C 98% 6.9 mph S11.1 kmh S 12.7 mph20.4 kmh 30.03 in1016.9 mb - 0.00 in0.0 mm 0.00 in0.0 mm
07:20 AM 52.3°F11.3°C 51.8°F11.0°C 98% 5.8 mph S9.3 kmh S 9.2 mph14.8 kmh 30.00 in1015.9 mb - 0.00 in0.0 mm 0.00 in0.0 mm
07:10 AM 52.2°F11.2°C 51.6°F10.9°C 98% 8.1 mph S13.0 kmh S 10.4 mph16.7 kmh 30.00 in1015.9 mb - 0.00 in0.0 mm 0.00 in0.0 mm
07:00 AM 52.3°F11.3°C 51.8°F11.0°C 98% 6.9 mph S11.1 kmh S 10.4 mph16.7 kmh 30.00 in1015.9 mb - 0.00 in0.0 mm 0.00 in0.0 mm
06:50 AM 52.5°F11.4°C 52.0°F11.1°C 98% 8.1 mph SSE13.0 kmh SSE 11.5 mph18.5 kmh 30.00 in1015.9 mb - 0.00 in0.0 mm 0.00 in0.0 mm
06:40 AM 52.9°F11.6°C 52.3°F11.3°C 98% 4.6 mph SSE7.4 kmh SSE 10.4 mph16.7 kmh 30.00 in1015.9 mb - 0.00 in0.0 mm 0.00 in0.0 mm
06:30 AM 53.1°F11.7°C 52.5°F11.4°C 98% 3.5 mph S5.6 kmh S 8.1 mph13.0 kmh 30.00 in1015.9 mb - 0.00 in0.0 mm 0.00 in0.0 mm
06:20 AM 53.1°F11.7°C 52.5°F11.4°C 98% 3.5 mph SSE5.6 kmh SSE 8.1 mph13.0 kmh 30.00 in1015.9 mb - 0.00 in0.0 mm 0.00 in0.0 mm
06:10 AM 53.0°F11.7°C 52.4°F11.3°C 98% 6.9 mph SSE11.1 kmh SSE 11.5 mph18.5 kmh 30.00 in1015.9 mb - 0.00 in0.0 mm 0.00 in0.0 mm
06:00 AM 52.9°F11.6°C 52.3°F11.3°C 98% 4.6 mph SSE7.4 kmh SSE 8.1 mph13.0 kmh 30.00 in1015.9 mb - 0.00 in0.0 mm 0.00 in0.0 mm
05:50 AM 52.9°F11.6°C 52.3°F11.3°C 98% 4.6 mph SE7.4 kmh SE 11.5 mph18.5 kmh 30.00 in1015.9 mb - 0.00 in0.0 mm 0.00 in0.0 mm
05:40 AM 52.8°F11.6°C 52.2°F11.2°C 98% 3.5 mph SE5.6 kmh SE 5.8 mph9.3 kmh 30.00 in1015.9 mb - 0.00 in0.0 mm 0.00 in0.0 mm
05:30 AM 52.2°F11.2°C 51.6°F10.9°C 98% 3.5 mph SE5.6 kmh SE 10.4 mph16.7 kmh 30.00 in1015.9 mb - 0.00 in0.0 mm 0.00 in0.0 mm
05:20 AM 51.5°F10.8°C 51.0°F10.6°C 98% 4.6 mph SE7.4 kmh SE 8.1 mph13.0 kmh 30.00 in1015.9 mb - 0.00 in0.0 mm 0.00 in0.0 mm
05:10 AM 50.4°F10.2°C 49.9°F9.9°C 98% 5.8 mph SSE9.3 kmh SSE 4.6 mph7.4 kmh 30.00 in1015.9 mb - 0.00 in0.0 mm 0.00 in0.0 mm
05:00 AM 49.8°F9.9°C 49.3°F9.6°C 98% Calm Calm -- 30.00 in1015.9 mb - 0.00 in0.0 mm 0.00 in0.0 mm
04:50 AM 50.0°F10.0°C 49.5°F9.7°C 98% 1.2 mph NW1.9 kmh NW 3.5 mph5.6 kmh 30.00 in1015.9 mb - 0.00 in0.0 mm 0.00 in0.0 mm
04:40 AM 50.5°F10.3°C 50.0°F10.0°C 98% Calm Calm 3.5 mph5.6 kmh 30.00 in1015.9 mb - 0.00 in0.0 mm 0.00 in0.0 mm
04:30 AM 50.5°F10.3°C 50.0°F10.0°C 98% 3.5 mph S5.6 kmh S 5.8 mph9.3 kmh 30.00 in1015.9 mb - 0.00 in0.0 mm 0.00 in0.0 mm
04:20 AM 51.0°F10.6°C 50.5°F10.3°C 98% 4.6 mph SW7.4 kmh SW 8.1 mph13.0 kmh 30.00 in1015.9 mb - 0.00 in0.0 mm 0.00 in0.0 mm
04:10 AM 51.6°F10.9°C 51.1°F10.6°C 98% 5.8 mph SSE9.3 kmh SSE 5.8 mph9.3 kmh 30.00 in1015.9 mb - 0.00 in0.0 mm 0.00 in0.0 mm
04:00 AM 51.6°F10.9°C 51.1°F10.6°C 98% 4.6 mph S7.4 kmh S 11.5 mph18.5 kmh 30.00 in1015.9 mb - 0.00 in0.0 mm 0.00 in0.0 mm
03:50 AM 51.6°F10.9°C 51.1°F10.6°C 98% 5.8 mph S9.3 kmh S 6.9 mph11.1 kmh 30.00 in1015.9 mb - 0.00 in0.0 mm 0.00 in0.0 mm
03:40 AM 51.7°F10.9°C 51.2°F10.7°C 98% 3.5 mph SE5.6 kmh SE 5.8 mph9.3 kmh 30.00 in1015.9 mb - 0.00 in0.0 mm 0.00 in0.0 mm
03:30 AM 51.6°F10.9°C 51.1°F10.6°C 98% Calm Calm 3.5 mph5.6 kmh 30.00 in1015.9 mb - 0.00 in0.0 mm 0.00 in0.0 mm
03:20 AM 51.8°F11.0°C 51.3°F10.7°C 98% Calm Calm -- 30.00 in1015.9 mb - 0.00 in0.0 mm 0.00 in0.0 mm
03:10 AM 52.0°F11.1°C 51.4°F10.8°C 98% Calm Calm 3.5 mph5.6 kmh 30.00 in1015.9 mb - 0.00 in0.0 mm 0.00 in0.0 mm
03:00 AM 51.8°F11.0°C 51.3°F10.7°C 98% 3.5 mph SSE5.6 kmh SSE 5.8 mph9.3 kmh 30.00 in1015.9 mb - 0.00 in0.0 mm 0.00 in0.0 mm
02:50 AM 50.8°F10.4°C 50.2°F10.1°C 98% 3.5 mph SE5.6 kmh SE 6.9 mph11.1 kmh 30.03 in1016.9 mb - 0.00 in0.0 mm 0.00 in0.0 mm
02:40 AM 47.7°F8.7°C 47.1°F8.4°C 98% 1.2 mph S1.9 kmh S 3.5 mph5.6 kmh 30.00 in1015.9 mb - 0.00 in0.0 mm 0.00 in0.0 mm
02:30 AM 46.2°F7.9°C 45.7°F7.6°C 98% Calm Calm 3.5 mph5.6 kmh 30.00 in1015.9 mb - 0.00 in0.0 mm 0.00 in0.0 mm
02:20 AM 45.9°F7.7°C 45.3°F7.4°C 98% Calm Calm -- 30.00 in1015.9 mb - 0.00 in0.0 mm 0.00 in0.0 mm
02:10 AM 45.9°F7.7°C 45.3°F7.4°C 98% Calm Calm -- 30.00 in1015.9 mb - 0.00 in0.0 mm 0.00 in0.0 mm
02:00 AM 46.0°F7.8°C 45.5°F7.5°C 98% Calm Calm -- 30.00 in1015.9 mb - 0.00 in0.0 mm 0.00 in0.0 mm
01:50 AM 45.7°F7.6°C 45.1°F7.3°C 98% Calm Calm -- 30.00 in1015.9 mb - 0.00 in0.0 mm 0.00 in0.0 mm
01:40 AM 45.3°F7.4°C 44.8°F7.1°C 98% Calm Calm -- 30.00 in1015.9 mb - 0.00 in0.0 mm 0.00 in0.0 mm
01:30 AM 45.1°F7.3°C 44.6°F7.0°C 98% Calm Calm -- 30.00 in1015.9 mb - 0.00 in0.0 mm 0.00 in0.0 mm
01:20 AM 44.8°F7.1°C 44.3°F6.8°C 98% 1.2 mph ENE1.9 kmh ENE 4.6 mph7.4 kmh 30.00 in1015.9 mb - 0.00 in0.0 mm 0.00 in0.0 mm
01:10 AM 45.0°F7.2°C 44.5°F6.9°C 98% Calm Calm -- 30.00 in1015.9 mb - 0.00 in0.0 mm 0.00 in0.0 mm
01:00 AM 45.5°F7.5°C 45.0°F7.2°C 98% 2.3 mph WSW3.7 kmh WSW 3.5 mph5.6 kmh 30.00 in1015.9 mb - 0.00 in0.0 mm 0.00 in0.0 mm
12:50 AM 45.5°F7.5°C 45.0°F7.2°C 98% Calm Calm -- 30.03 in1016.9 mb - 0.00 in0.0 mm 0.00 in0.0 mm
12:40 AM 45.3°F7.4°C 44.8°F7.1°C 98% 2.3 mph NW3.7 kmh NW 3.5 mph5.6 kmh 30.03 in1016.9 mb - 0.00 in0.0 mm 0.00 in0.0 mm
12:30 AM 45.3°F7.4°C 44.8°F7.1°C 98% Calm Calm -- 30.03 in1016.9 mb - 0.00 in0.0 mm 0.00 in0.0 mm
12:20 AM 45.5°F7.5°C 45.0°F7.2°C 98% Calm Calm -- 30.03 in1016.9 mb - 0.00 in0.0 mm 0.00 in0.0 mm
12:10 AM 45.5°F7.5°C 45.0°F7.2°C 98% Calm Calm -- 30.03 in1016.9 mb - 0.00 in0.0 mm 0.00 in0.0 mm
12:00 AM 45.7°F7.6°C 45.1°F7.3°C 98% Calm Calm -- 30.03 in1016.9 mb - 0.00 in0.0 mm 0.00 in0.0 mm